sensor_id;sensor_type;location;lat;lon;timestamp;temperature;humidity
42261;DHT22;27926;48.062;7.474;2023-06-14T00:00:37;15.00;99.30
42261;DHT22;27926;48.062;7.474;2023-06-14T00:03:05;14.90;99.40
42261;DHT22;27926;48.062;7.474;2023-06-14T00:05:29;14.90;99.40
42261;DHT22;27926;48.062;7.474;2023-06-14T00:07:56;14.80;99.40
42261;DHT22;27926;48.062;7.474;2023-06-14T00:10:23;14.80;99.30
42261;DHT22;27926;48.062;7.474;2023-06-14T00:12:48;14.80;99.50
42261;DHT22;27926;48.062;7.474;2023-06-14T00:15:13;14.80;98.70
42261;DHT22;27926;48.062;7.474;2023-06-14T00:17:37;14.80;99.60
42261;DHT22;27926;48.062;7.474;2023-06-14T00:20:03;14.70;99.60
42261;DHT22;27926;48.062;7.474;2023-06-14T00:22:32;14.70;99.60
42261;DHT22;27926;48.062;7.474;2023-06-14T00:24:57;14.70;99.80
42261;DHT22;27926;48.062;7.474;2023-06-14T00:27:21;14.70;99.50
42261;DHT22;27926;48.062;7.474;2023-06-14T00:29:46;14.60;99.40
42261;DHT22;27926;48.062;7.474;2023-06-14T00:32:11;14.50;99.90
42261;DHT22;27926;48.062;7.474;2023-06-14T00:34:35;14.40;99.70
42261;DHT22;27926;48.062;7.474;2023-06-14T00:37:00;14.40;99.60
42261;DHT22;27926;48.062;7.474;2023-06-14T00:39:25;14.40;99.80
42261;DHT22;27926;48.062;7.474;2023-06-14T00:41:49;14.40;99.50
42261;DHT22;27926;48.062;7.474;2023-06-14T00:44:16;14.40;99.70
42261;DHT22;27926;48.062;7.474;2023-06-14T00:46:41;14.40;99.50
42261;DHT22;27926;48.062;7.474;2023-06-14T00:49:07;14.40;99.70
42261;DHT22;27926;48.062;7.474;2023-06-14T00:51:31;14.40;99.60
42261;DHT22;27926;48.062;7.474;2023-06-14T00:53:56;14.40;99.90
42261;DHT22;27926;48.062;7.474;2023-06-14T00:56:21;14.30;99.80
42261;DHT22;27926;48.062;7.474;2023-06-14T00:58:47;14.30;99.90
42261;DHT22;27926;48.062;7.474;2023-06-14T01:01:12;13.70;99.80
42261;DHT22;27926;48.062;7.474;2023-06-14T01:03:37;14.30;99.90
42261;DHT22;27926;48.062;7.474;2023-06-14T01:06:20;14.20;99.90
42261;DHT22;27926;48.062;7.474;2023-06-14T01:08:57;14.20;99.90
42261;DHT22;27926;48.062;7.474;2023-06-14T01:11:30;14.10;99.90
42261;DHT22;27926;48.062;7.474;2023-06-14T01:13:56;14.10;99.90
42261;DHT22;27926;48.062;7.474;2023-06-14T01:16:21;14.00;99.90
42261;DHT22;27926;48.062;7.474;2023-06-14T01:18:46;14.00;99.90
42261;DHT22;27926;48.062;7.474;2023-06-14T01:21:23;14.00;99.90
42261;DHT22;27926;48.062;7.474;2023-06-14T01:23:48;14.00;99.90
42261;DHT22;27926;48.062;7.474;2023-06-14T01:26:17;14.00;99.90
42261;DHT22;27926;48.062;7.474;2023-06-14T01:28:41;14.00;99.90
42261;DHT22;27926;48.062;7.474;2023-06-14T01:31:07;14.00;99.90
42261;DHT22;27926;48.062;7.474;2023-06-14T01:33:33;13.90;99.90
42261;DHT22;27926;48.062;7.474;2023-06-14T01:35:59;13.90;99.90
42261;DHT22;27926;48.062;7.474;2023-06-14T01:38:26;13.80;99.90
42261;DHT22;27926;48.062;7.474;2023-06-14T01:40:54;13.80;99.90
42261;DHT22;27926;48.062;7.474;2023-06-14T01:43:23;13.80;99.90
42261;DHT22;27926;48.062;7.474;2023-06-14T01:45:48;13.90;99.90
42261;DHT22;27926;48.062;7.474;2023-06-14T01:48:13;13.70;99.90
42261;DHT22;27926;48.062;7.474;2023-06-14T01:50:38;13.60;99.90
42261;DHT22;27926;48.062;7.474;2023-06-14T01:53:07;13.60;99.90
42261;DHT22;27926;48.062;7.474;2023-06-14T01:55:32;13.60;99.90
42261;DHT22;27926;48.062;7.474;2023-06-14T01:58:01;13.60;99.90
42261;DHT22;27926;48.062;7.474;2023-06-14T02:00:26;13.60;99.90
42261;DHT22;27926;48.062;7.474;2023-06-14T02:02:50;13.50;99.90
42261;DHT22;27926;48.062;7.474;2023-06-14T02:05:16;13.50;99.90
42261;DHT22;27926;48.062;7.474;2023-06-14T02:07:43;13.40;99.90
42261;DHT22;27926;48.062;7.474;2023-06-14T02:10:07;13.40;99.90
42261;DHT22;27926;48.062;7.474;2023-06-14T02:12:32;13.40;99.90
42261;DHT22;27926;48.062;7.474;2023-06-14T02:14:57;13.30;99.90
42261;DHT22;27926;48.062;7.474;2023-06-14T02:17:22;13.20;99.90
42261;DHT22;27926;48.062;7.474;2023-06-14T02:19:47;13.10;99.90
42261;DHT22;27926;48.062;7.474;2023-06-14T02:22:12;13.00;99.90
42261;DHT22;27926;48.062;7.474;2023-06-14T02:24:39;12.90;99.90
42261;DHT22;27926;48.062;7.474;2023-06-14T02:27:04;12.80;99.90
42261;DHT22;27926;48.062;7.474;2023-06-14T02:29:28;12.70;99.90
42261;DHT22;27926;48.062;7.474;2023-06-14T02:31:53;12.60;99.90
42261;DHT22;27926;48.062;7.474;2023-06-14T02:34:18;12.50;99.90
42261;DHT22;27926;48.062;7.474;2023-06-14T02:36:44;12.00;99.90
42261;DHT22;27926;48.062;7.474;2023-06-14T02:39:09;12.50;99.90
42261;DHT22;27926;48.062;7.474;2023-06-14T02:41:38;12.50;99.90
42261;DHT22;27926;48.062;7.474;2023-06-14T02:44:03;12.50;99.90
42261;DHT22;27926;48.062;7.474;2023-06-14T02:46:27;12.50;99.90
42261;DHT22;27926;48.062;7.474;2023-06-14T02:48:52;12.50;99.90
42261;DHT22;27926;48.062;7.474;2023-06-14T02:51:16;12.50;99.90
42261;DHT22;27926;48.062;7.474;2023-06-14T02:53:41;12.50;99.90
42261;DHT22;27926;48.062;7.474;2023-06-14T02:56:06;12.60;99.90
42261;DHT22;27926;48.062;7.474;2023-06-14T02:58:31;12.60;99.90
42261;DHT22;27926;48.062;7.474;2023-06-14T03:00:55;12.70;99.90
42261;DHT22;27926;48.062;7.474;2023-06-14T03:03:20;12.60;99.90
42261;DHT22;27926;48.062;7.474;2023-06-14T03:05:47;12.60;99.90
42261;DHT22;27926;48.062;7.474;2023-06-14T03:08:14;12.60;99.90
42261;DHT22;27926;48.062;7.474;2023-06-14T03:10:41;12.60;99.90
42261;DHT22;27926;48.062;7.474;2023-06-14T03:13:05;12.60;99.90
42261;DHT22;27926;48.062;7.474;2023-06-14T03:15:31;12.60;99.90
42261;DHT22;27926;48.062;7.474;2023-06-14T03:17:57;12.50;99.90
42261;DHT22;27926;48.062;7.474;2023-06-14T03:20:23;12.50;99.90
42261;DHT22;27926;48.062;7.474;2023-06-14T03:22:48;12.50;99.90
42261;DHT22;27926;48.062;7.474;2023-06-14T03:25:12;12.50;99.90
42261;DHT22;27926;48.062;7.474;2023-06-14T03:27:38;12.50;99.90
42261;DHT22;27926;48.062;7.474;2023-06-14T03:30:02;12.40;99.90
42261;DHT22;27926;48.062;7.474;2023-06-14T03:32:28;12.40;99.90
42261;DHT22;27926;48.062;7.474;2023-06-14T03:34:52;12.40;99.90
42261;DHT22;27926;48.062;7.474;2023-06-14T03:37:18;12.40;99.90
42261;DHT22;27926;48.062;7.474;2023-06-14T03:39:42;12.40;99.90
42261;DHT22;27926;48.062;7.474;2023-06-14T03:42:10;12.40;99.90
42261;DHT22;27926;48.062;7.474;2023-06-14T03:44:35;12.40;99.90
42261;DHT22;27926;48.062;7.474;2023-06-14T03:46:59;12.40;99.90
42261;DHT22;27926;48.062;7.474;2023-06-14T03:49:24;12.30;99.90
42261;DHT22;27926;48.062;7.474;2023-06-14T03:51:49;12.20;99.90
42261;DHT22;27926;48.062;7.474;2023-06-14T03:54:15;12.30;99.90
42261;DHT22;27926;48.062;7.474;2023-06-14T03:56:40;12.30;99.90
42261;DHT22;27926;48.062;7.474;2023-06-14T03:59:04;12.30;99.90
42261;DHT22;27926;48.062;7.474;2023-06-14T04:01:29;12.40;99.90
42261;DHT22;27926;48.062;7.474;2023-06-14T04:03:54;12.40;99.90
42261;DHT22;27926;48.062;7.474;2023-06-14T04:06:18;12.40;99.90
42261;DHT22;27926;48.062;7.474;2023-06-14T04:08:43;12.50;99.90
42261;DHT22;27926;48.062;7.474;2023-06-14T04:11:09;12.50;99.90
42261;DHT22;27926;48.062;7.474;2023-06-14T04:13:34;12.60;99.90
42261;DHT22;27926;48.062;7.474;2023-06-14T04:16:00;12.60;99.90
42261;DHT22;27926;48.062;7.474;2023-06-14T04:18:25;12.70;99.90
42261;DHT22;27926;48.062;7.474;2023-06-14T04:20:50;12.80;99.90
42261;DHT22;27926;48.062;7.474;2023-06-14T04:23:15;12.90;99.90
42261;DHT22;27926;48.062;7.474;2023-06-14T04:25:42;13.00;99.90
42261;DHT22;27926;48.062;7.474;2023-06-14T04:28:09;13.10;99.90
42261;DHT22;27926;48.062;7.474;2023-06-14T04:30:33;13.30;99.90
42261;DHT22;27926;48.062;7.474;2023-06-14T04:32:59;13.40;99.90
42261;DHT22;27926;48.062;7.474;2023-06-14T04:35:24;13.60;99.90
42261;DHT22;27926;48.062;7.474;2023-06-14T04:37:50;13.70;99.90
42261;DHT22;27926;48.062;7.474;2023-06-14T04:40:14;14.10;99.90
42261;DHT22;27926;48.062;7.474;2023-06-14T04:42:39;14.70;99.90
42261;DHT22;27926;48.062;7.474;2023-06-14T04:45:05;15.70;99.90
42261;DHT22;27926;48.062;7.474;2023-06-14T04:47:31;16.90;99.90
42261;DHT22;27926;48.062;7.474;2023-06-14T04:49:57;18.10;97.70
42261;DHT22;27926;48.062;7.474;2023-06-14T04:52:22;19.20;95.10
42261;DHT22;27926;48.062;7.474;2023-06-14T04:54:47;20.10;93.70
42261;DHT22;27926;48.062;7.474;2023-06-14T04:57:12;20.70;92.00
42261;DHT22;27926;48.062;7.474;2023-06-14T04:59:38;21.30;91.50
42261;DHT22;27926;48.062;7.474;2023-06-14T05:02:02;22.00;90.30
42261;DHT22;27926;48.062;7.474;2023-06-14T05:04:27;22.40;89.10
42261;DHT22;27926;48.062;7.474;2023-06-14T05:06:52;22.80;88.90
42261;DHT22;27926;48.062;7.474;2023-06-14T05:09:18;23.40;86.50
42261;DHT22;27926;48.062;7.474;2023-06-14T05:11:44;23.10;85.70
42261;DHT22;27926;48.062;7.474;2023-06-14T05:14:09;22.80;86.80
42261;DHT22;27926;48.062;7.474;2023-06-14T05:16:33;22.70;87.80
42261;DHT22;27926;48.062;7.474;2023-06-14T05:18:58;23.10;87.20
42261;DHT22;27926;48.062;7.474;2023-06-14T05:21:23;23.50;85.20
42261;DHT22;27926;48.062;7.474;2023-06-14T05:23:47;24.00;85.20
42261;DHT22;27926;48.062;7.474;2023-06-14T05:26:12;24.00;84.50
42261;DHT22;27926;48.062;7.474;2023-06-14T05:28:37;23.70;84.10
42261;DHT22;27926;48.062;7.474;2023-06-14T05:31:02;23.80;84.10
42261;DHT22;27926;48.062;7.474;2023-06-14T05:33:26;23.90;84.00
42261;DHT22;27926;48.062;7.474;2023-06-14T05:35:51;24.00;83.10
42261;DHT22;27926;48.062;7.474;2023-06-14T05:38:16;24.40;82.30
42261;DHT22;27926;48.062;7.474;2023-06-14T05:40:40;24.10;82.00
42261;DHT22;27926;48.062;7.474;2023-06-14T05:43:05;24.10;81.50
42261;DHT22;27926;48.062;7.474;2023-06-14T05:45:30;24.60;82.50
42261;DHT22;27926;48.062;7.474;2023-06-14T05:47:54;24.80;81.80
42261;DHT22;27926;48.062;7.474;2023-06-14T05:50:19;24.70;80.30
42261;DHT22;27926;48.062;7.474;2023-06-14T05:52:44;24.70;81.60
42261;DHT22;27926;48.062;7.474;2023-06-14T05:55:09;24.10;81.50
42261;DHT22;27926;48.062;7.474;2023-06-14T05:57:36;24.30;81.70
42261;DHT22;27926;48.062;7.474;2023-06-14T06:00:01;23.90;81.30
42261;DHT22;27926;48.062;7.474;2023-06-14T06:02:29;24.00;82.20
42261;DHT22;27926;48.062;7.474;2023-06-14T06:04:54;23.90;82.70
42261;DHT22;27926;48.062;7.474;2023-06-14T06:07:19;23.70;83.00
42261;DHT22;27926;48.062;7.474;2023-06-14T06:09:43;23.50;82.70
42261;DHT22;27926;48.062;7.474;2023-06-14T06:12:08;23.40;81.00
42261;DHT22;27926;48.062;7.474;2023-06-14T06:14:33;23.20;81.10
42261;DHT22;27926;48.062;7.474;2023-06-14T06:16:57;23.30;81.60
42261;DHT22;27926;48.062;7.474;2023-06-14T06:19:22;23.40;80.70
42261;DHT22;27926;48.062;7.474;2023-06-14T06:21:47;23.40;81.40
42261;DHT22;27926;48.062;7.474;2023-06-14T06:24:12;23.50;79.70
42261;DHT22;27926;48.062;7.474;2023-06-14T06:26:36;23.70;80.60
42261;DHT22;27926;48.062;7.474;2023-06-14T06:29:01;23.50;79.90
42261;DHT22;27926;48.062;7.474;2023-06-14T06:31:26;23.30;78.80
42261;DHT22;27926;48.062;7.474;2023-06-14T06:33:51;23.00;80.00
42261;DHT22;27926;48.062;7.474;2023-06-14T06:36:18;22.90;80.10
42261;DHT22;27926;48.062;7.474;2023-06-14T06:38:42;22.90;80.40
42261;DHT22;27926;48.062;7.474;2023-06-14T06:41:07;22.90;79.60
42261;DHT22;27926;48.062;7.474;2023-06-14T06:43:31;22.80;80.10
42261;DHT22;27926;48.062;7.474;2023-06-14T06:45:56;22.80;80.40
42261;DHT22;27926;48.062;7.474;2023-06-14T06:48:21;22.50;80.30
42261;DHT22;27926;48.062;7.474;2023-06-14T06:50:45;22.30;81.20
42261;DHT22;27926;48.062;7.474;2023-06-14T06:53:10;22.60;81.50
42261;DHT22;27926;48.062;7.474;2023-06-14T06:55:35;22.40;81.80
42261;DHT22;27926;48.062;7.474;2023-06-14T06:57:59;22.30;80.80
42261;DHT22;27926;48.062;7.474;2023-06-14T07:00:24;22.10;80.60
42261;DHT22;27926;48.062;7.474;2023-06-14T07:02:49;22.30;81.20
42261;DHT22;27926;48.062;7.474;2023-06-14T07:05:13;22.50;80.90
42261;DHT22;27926;48.062;7.474;2023-06-14T07:07:38;22.30;81.10
42261;DHT22;27926;48.062;7.474;2023-06-14T07:10:04;22.40;81.00
42261;DHT22;27926;48.062;7.474;2023-06-14T07:12:29;22.40;81.70
42261;DHT22;27926;48.062;7.474;2023-06-14T07:14:54;22.50;82.40
42261;DHT22;27926;48.062;7.474;2023-06-14T07:17:19;22.60;82.50
42261;DHT22;27926;48.062;7.474;2023-06-14T07:19:43;22.50;81.50
42261;DHT22;27926;48.062;7.474;2023-06-14T07:22:08;22.40;81.60
42261;DHT22;27926;48.062;7.474;2023-06-14T07:24:32;22.50;81.60
42261;DHT22;27926;48.062;7.474;2023-06-14T07:26:59;22.70;81.60
42261;DHT22;27926;48.062;7.474;2023-06-14T07:29:23;22.70;80.40
42261;DHT22;27926;48.062;7.474;2023-06-14T07:31:48;22.60;80.60
42261;DHT22;27926;48.062;7.474;2023-06-14T07:34:13;22.90;81.00
42261;DHT22;27926;48.062;7.474;2023-06-14T07:36:37;23.00;80.10
42261;DHT22;27926;48.062;7.474;2023-06-14T07:39:02;23.00;80.30
42261;DHT22;27926;48.062;7.474;2023-06-14T07:41:28;23.00;79.70
42261;DHT22;27926;48.062;7.474;2023-06-14T07:43:52;23.10;79.70
42261;DHT22;27926;48.062;7.474;2023-06-14T07:46:17;23.40;80.10
42261;DHT22;27926;48.062;7.474;2023-06-14T07:48:41;23.40;79.20
42261;DHT22;27926;48.062;7.474;2023-06-14T07:51:06;23.10;78.30
42261;DHT22;27926;48.062;7.474;2023-06-14T07:53:30;23.30;78.50
42261;DHT22;27926;48.062;7.474;2023-06-14T07:55:55;23.10;78.70
42261;DHT22;27926;48.062;7.474;2023-06-14T07:58:20;23.10;79.30
42261;DHT22;27926;48.062;7.474;2023-06-14T08:00:45;23.10;80.60
42261;DHT22;27926;48.062;7.474;2023-06-14T08:03:10;23.30;80.30
42261;DHT22;27926;48.062;7.474;2023-06-14T08:05:35;23.40;79.50
42261;DHT22;27926;48.062;7.474;2023-06-14T08:07:59;23.40;79.00
42261;DHT22;27926;48.062;7.474;2023-06-14T08:10:24;23.40;79.60
42261;DHT22;27926;48.062;7.474;2023-06-14T08:12:49;23.50;80.70
42261;DHT22;27926;48.062;7.474;2023-06-14T08:15:17;23.40;80.20
42261;DHT22;27926;48.062;7.474;2023-06-14T08:17:45;23.50;79.00
42261;DHT22;27926;48.062;7.474;2023-06-14T08:20:10;23.60;80.30
42261;DHT22;27926;48.062;7.474;2023-06-14T08:22:35;23.90;80.80
42261;DHT22;27926;48.062;7.474;2023-06-14T08:25:04;24.10;79.10
42261;DHT22;27926;48.062;7.474;2023-06-14T08:27:28;24.10;79.00
42261;DHT22;27926;48.062;7.474;2023-06-14T08:29:53;24.30;78.10
42261;DHT22;27926;48.062;7.474;2023-06-14T08:32:18;24.40;78.00
42261;DHT22;27926;48.062;7.474;2023-06-14T08:34:42;24.10;78.00
42261;DHT22;27926;48.062;7.474;2023-06-14T08:37:07;23.90;78.90
42261;DHT22;27926;48.062;7.474;2023-06-14T08:39:32;23.70;79.10
42261;DHT22;27926;48.062;7.474;2023-06-14T08:41:56;23.70;79.80
42261;DHT22;27926;48.062;7.474;2023-06-14T08:44:21;23.80;78.70
42261;DHT22;27926;48.062;7.474;2023-06-14T08:46:47;23.80;77.40
42261;DHT22;27926;48.062;7.474;2023-06-14T08:49:12;23.90;78.50
42261;DHT22;27926;48.062;7.474;2023-06-14T08:51:37;24.10;78.80
42261;DHT22;27926;48.062;7.474;2023-06-14T08:54:02;23.90;78.70
42261;DHT22;27926;48.062;7.474;2023-06-14T08:56:28;24.00;78.70
42261;DHT22;27926;48.062;7.474;2023-06-14T08:58:54;24.10;78.50
42261;DHT22;27926;48.062;7.474;2023-06-14T09:01:19;24.20;78.50
42261;DHT22;27926;48.062;7.474;2023-06-14T09:03:46;24.30;78.00
42261;DHT22;27926;48.062;7.474;2023-06-14T09:06:12;24.40;78.80
42261;DHT22;27926;48.062;7.474;2023-06-14T09:08:44;24.30;77.80
42261;DHT22;27926;48.062;7.474;2023-06-14T09:11:17;24.20;77.70
42261;DHT22;27926;48.062;7.474;2023-06-14T09:13:43;24.40;77.60
42261;DHT22;27926;48.062;7.474;2023-06-14T09:16:08;24.50;76.30
42261;DHT22;27926;48.062;7.474;2023-06-14T09:18:45;24.60;75.90
42261;DHT22;27926;48.062;7.474;2023-06-14T09:21:12;24.50;76.70
42261;DHT22;27926;48.062;7.474;2023-06-14T09:23:41;24.50;77.60
42261;DHT22;27926;48.062;7.474;2023-06-14T09:26:17;24.70;78.30
42261;DHT22;27926;48.062;7.474;2023-06-14T09:28:47;25.00;78.40
42261;DHT22;27926;48.062;7.474;2023-06-14T09:31:13;24.90;76.20
42261;DHT22;27926;48.062;7.474;2023-06-14T09:33:38;24.90;77.90
42261;DHT22;27926;48.062;7.474;2023-06-14T09:36:04;24.90;76.30
42261;DHT22;27926;48.062;7.474;2023-06-14T09:38:29;24.90;76.10
42261;DHT22;27926;48.062;7.474;2023-06-14T09:40:57;24.90;76.80
42261;DHT22;27926;48.062;7.474;2023-06-14T09:43:23;24.90;76.90
42261;DHT22;27926;48.062;7.474;2023-06-14T09:45:48;24.80;76.30
42261;DHT22;27926;48.062;7.474;2023-06-14T09:48:13;24.80;76.90
42261;DHT22;27926;48.062;7.474;2023-06-14T09:50:42;24.90;79.00
42261;DHT22;27926;48.062;7.474;2023-06-14T09:53:10;25.00;77.30
42261;DHT22;27926;48.062;7.474;2023-06-14T09:55:37;24.10;77.30
42261;DHT22;27926;48.062;7.474;2023-06-14T09:58:04;25.10;77.10
42261;DHT22;27926;48.062;7.474;2023-06-14T10:00:30;25.20;75.50
42261;DHT22;27926;48.062;7.474;2023-06-14T10:03:06;25.30;76.00
42261;DHT22;27926;48.062;7.474;2023-06-14T10:05:35;25.40;74.60
42261;DHT22;27926;48.062;7.474;2023-06-14T10:08:07;25.50;74.70
42261;DHT22;27926;48.062;7.474;2023-06-14T10:10:33;25.50;74.10
42261;DHT22;27926;48.062;7.474;2023-06-14T10:12:58;25.60;74.40
42261;DHT22;27926;48.062;7.474;2023-06-14T10:15:50;25.70;72.70
42261;DHT22;27926;48.062;7.474;2023-06-14T10:18:31;25.70;71.60
42261;DHT22;27926;48.062;7.474;2023-06-14T10:23:41;25.90;72.70
42261;DHT22;27926;48.062;7.474;2023-06-14T10:26:07;25.90;72.60
42261;DHT22;27926;48.062;7.474;2023-06-14T10:28:31;25.70;72.80
42261;DHT22;27926;48.062;7.474;2023-06-14T10:31:11;25.70;70.20
42261;DHT22;27926;48.062;7.474;2023-06-14T10:33:52;25.80;71.70
42261;DHT22;27926;48.062;7.474;2023-06-14T10:39:06;25.80;66.70
42261;DHT22;27926;48.062;7.474;2023-06-14T10:41:36;25.90;68.30
42261;DHT22;27926;48.062;7.474;2023-06-14T10:46:37;26.10;67.60
42261;DHT22;27926;48.062;7.474;2023-06-14T10:49:02;26.10;67.10
42261;DHT22;27926;48.062;7.474;2023-06-14T10:51:30;26.10;66.90
42261;DHT22;27926;48.062;7.474;2023-06-14T10:54:15;26.20;68.90
42261;DHT22;27926;48.062;7.474;2023-06-14T10:56:51;26.20;69.20
42261;DHT22;27926;48.062;7.474;2023-06-14T10:59:17;26.10;69.40
42261;DHT22;27926;48.062;7.474;2023-06-14T11:04:21;26.10;68.00
42261;DHT22;27926;48.062;7.474;2023-06-14T11:06:48;26.00;66.60
42261;DHT22;27926;48.062;7.474;2023-06-14T11:11:56;26.20;67.10
42261;DHT22;27926;48.062;7.474;2023-06-14T11:14:21;26.20;66.40
42261;DHT22;27926;48.062;7.474;2023-06-14T11:16:49;26.10;67.70
42261;DHT22;27926;48.062;7.474;2023-06-14T11:19:14;26.30;66.60
42261;DHT22;27926;48.062;7.474;2023-06-14T11:21:41;26.30;67.00
42261;DHT22;27926;48.062;7.474;2023-06-14T11:24:10;26.30;67.00
42261;DHT22;27926;48.062;7.474;2023-06-14T11:26:37;26.30;66.60
42261;DHT22;27926;48.062;7.474;2023-06-14T11:29:02;26.20;65.80
42261;DHT22;27926;48.062;7.474;2023-06-14T11:31:28;26.30;67.20
42261;DHT22;27926;48.062;7.474;2023-06-14T11:33:56;26.50;66.60
42261;DHT22;27926;48.062;7.474;2023-06-14T11:36:21;26.70;66.50
42261;DHT22;27926;48.062;7.474;2023-06-14T11:38:46;26.50;65.90
42261;DHT22;27926;48.062;7.474;2023-06-14T11:41:10;26.50;66.80
42261;DHT22;27926;48.062;7.474;2023-06-14T11:43:35;26.60;66.90
42261;DHT22;27926;48.062;7.474;2023-06-14T11:46:00;26.70;66.00
42261;DHT22;27926;48.062;7.474;2023-06-14T11:48:40;26.80;66.20
42261;DHT22;27926;48.062;7.474;2023-06-14T11:51:04;26.90;65.60
42261;DHT22;27926;48.062;7.474;2023-06-14T11:53:29;26.90;65.50
42261;DHT22;27926;48.062;7.474;2023-06-14T11:55:55;27.00;65.50
42261;DHT22;27926;48.062;7.474;2023-06-14T11:58:19;27.10;65.30
42261;DHT22;27926;48.062;7.474;2023-06-14T12:00:44;27.10;65.00
42261;DHT22;27926;48.062;7.474;2023-06-14T12:03:09;26.90;64.40
42261;DHT22;27926;48.062;7.474;2023-06-14T12:05:34;26.90;65.20
42261;DHT22;27926;48.062;7.474;2023-06-14T12:08:00;27.00;65.60
42261;DHT22;27926;48.062;7.474;2023-06-14T12:10:24;27.00;64.10
42261;DHT22;27926;48.062;7.474;2023-06-14T12:12:49;27.10;65.10
42261;DHT22;27926;48.062;7.474;2023-06-14T12:15:14;27.20;64.10
42261;DHT22;27926;48.062;7.474;2023-06-14T12:17:39;27.00;65.30
42261;DHT22;27926;48.062;7.474;2023-06-14T12:20:09;27.00;65.20
42261;DHT22;27926;48.062;7.474;2023-06-14T12:25:35;27.30;63.80
42261;DHT22;27926;48.062;7.474;2023-06-14T12:28:08;27.20;64.30
42261;DHT22;27926;48.062;7.474;2023-06-14T12:30:35;27.10;65.30
42261;DHT22;27926;48.062;7.474;2023-06-14T12:33:00;27.10;64.30
42261;DHT22;27926;48.062;7.474;2023-06-14T12:35:25;26.90;64.30
42261;DHT22;27926;48.062;7.474;2023-06-14T12:37:50;26.80;64.80
42261;DHT22;27926;48.062;7.474;2023-06-14T12:40:14;26.80;64.60
42261;DHT22;27926;48.062;7.474;2023-06-14T12:42:40;27.10;64.50
42261;DHT22;27926;48.062;7.474;2023-06-14T12:45:06;27.10;63.30
42261;DHT22;27926;48.062;7.474;2023-06-14T12:47:31;27.00;63.60
42261;DHT22;27926;48.062;7.474;2023-06-14T12:49:55;27.00;64.50
42261;DHT22;27926;48.062;7.474;2023-06-14T12:52:20;26.80;65.00
42261;DHT22;27926;48.062;7.474;2023-06-14T12:54:44;27.00;65.20
42261;DHT22;27926;48.062;7.474;2023-06-14T12:57:09;27.10;65.00
42261;DHT22;27926;48.062;7.474;2023-06-14T12:59:34;27.20;65.00
42261;DHT22;27926;48.062;7.474;2023-06-14T13:02:19;27.40;64.30
42261;DHT22;27926;48.062;7.474;2023-06-14T13:04:48;27.20;63.70
42261;DHT22;27926;48.062;7.474;2023-06-14T13:07:13;27.30;65.50
42261;DHT22;27926;48.062;7.474;2023-06-14T13:09:39;27.40;64.60
42261;DHT22;27926;48.062;7.474;2023-06-14T13:12:04;27.50;64.80
42261;DHT22;27926;48.062;7.474;2023-06-14T13:14:29;27.40;63.40
42261;DHT22;27926;48.062;7.474;2023-06-14T13:16:54;27.30;65.60
42261;DHT22;27926;48.062;7.474;2023-06-14T13:19:19;27.30;64.50
42261;DHT22;27926;48.062;7.474;2023-06-14T13:21:44;27.40;64.40
42261;DHT22;27926;48.062;7.474;2023-06-14T13:24:08;27.40;64.40
42261;DHT22;27926;48.062;7.474;2023-06-14T13:26:34;27.50;65.60
42261;DHT22;27926;48.062;7.474;2023-06-14T13:28:59;27.50;64.60
42261;DHT22;27926;48.062;7.474;2023-06-14T13:31:24;27.30;64.90
42261;DHT22;27926;48.062;7.474;2023-06-14T13:33:49;27.20;64.90
42261;DHT22;27926;48.062;7.474;2023-06-14T13:36:13;27.30;64.70
42261;DHT22;27926;48.062;7.474;2023-06-14T13:38:38;27.20;64.80
42261;DHT22;27926;48.062;7.474;2023-06-14T13:41:02;27.00;64.20
42261;DHT22;27926;48.062;7.474;2023-06-14T13:43:27;27.00;64.20
42261;DHT22;27926;48.062;7.474;2023-06-14T13:45:52;27.00;65.30
42261;DHT22;27926;48.062;7.474;2023-06-14T13:48:16;27.10;64.70
42261;DHT22;27926;48.062;7.474;2023-06-14T13:50:41;27.10;64.70
42261;DHT22;27926;48.062;7.474;2023-06-14T13:53:05;27.10;64.60
42261;DHT22;27926;48.062;7.474;2023-06-14T13:55:30;27.10;65.50
42261;DHT22;27926;48.062;7.474;2023-06-14T13:57:54;27.10;64.40
42261;DHT22;27926;48.062;7.474;2023-06-14T14:00:20;27.10;64.90
42261;DHT22;27926;48.062;7.474;2023-06-14T14:02:45;27.00;65.00
42261;DHT22;27926;48.062;7.474;2023-06-14T14:05:10;27.10;65.20
42261;DHT22;27926;48.062;7.474;2023-06-14T14:07:34;27.00;64.20
42261;DHT22;27926;48.062;7.474;2023-06-14T14:10:00;27.10;64.90
42261;DHT22;27926;48.062;7.474;2023-06-14T14:12:24;27.10;64.80
42261;DHT22;27926;48.062;7.474;2023-06-14T14:14:49;27.10;65.70
42261;DHT22;27926;48.062;7.474;2023-06-14T14:17:14;27.20;64.90
42261;DHT22;27926;48.062;7.474;2023-06-14T14:19:39;27.20;65.30
42261;DHT22;27926;48.062;7.474;2023-06-14T14:22:04;27.00;65.30
42261;DHT22;27926;48.062;7.474;2023-06-14T14:24:28;27.00;64.60
42261;DHT22;27926;48.062;7.474;2023-06-14T14:26:53;27.00;66.00
42261;DHT22;27926;48.062;7.474;2023-06-14T14:29:18;27.10;65.80
42261;DHT22;27926;48.062;7.474;2023-06-14T14:31:42;27.20;64.40
42261;DHT22;27926;48.062;7.474;2023-06-14T14:34:07;27.10;65.60
42261;DHT22;27926;48.062;7.474;2023-06-14T14:36:32;27.10;64.40
42261;DHT22;27926;48.062;7.474;2023-06-14T14:38:59;27.10;65.30
42261;DHT22;27926;48.062;7.474;2023-06-14T14:41:23;27.00;63.90
42261;DHT22;27926;48.062;7.474;2023-06-14T14:43:48;26.80;64.50
42261;DHT22;27926;48.062;7.474;2023-06-14T14:46:13;26.80;64.80
42261;DHT22;27926;48.062;7.474;2023-06-14T14:48:37;26.90;64.30
42261;DHT22;27926;48.062;7.474;2023-06-14T14:51:02;27.00;64.50
42261;DHT22;27926;48.062;7.474;2023-06-14T14:53:28;26.90;65.80
42261;DHT22;27926;48.062;7.474;2023-06-14T14:55:52;26.70;65.80
42261;DHT22;27926;48.062;7.474;2023-06-14T14:58:17;26.50;66.80
42261;DHT22;27926;48.062;7.474;2023-06-14T15:00:42;26.40;67.10
42261;DHT22;27926;48.062;7.474;2023-06-14T15:03:07;26.50;66.90
42261;DHT22;27926;48.062;7.474;2023-06-14T15:05:31;26.50;66.60
42261;DHT22;27926;48.062;7.474;2023-06-14T15:07:56;26.50;66.50
42261;DHT22;27926;48.062;7.474;2023-06-14T15:10:20;26.50;66.00
42261;DHT22;27926;48.062;7.474;2023-06-14T15:12:45;26.40;66.10
42261;DHT22;27926;48.062;7.474;2023-06-14T15:15:10;26.50;67.00
42261;DHT22;27926;48.062;7.474;2023-06-14T15:17:34;26.60;66.20
42261;DHT22;27926;48.062;7.474;2023-06-14T15:19:59;26.60;66.70
42261;DHT22;27926;48.062;7.474;2023-06-14T15:22:24;26.70;67.10
42261;DHT22;27926;48.062;7.474;2023-06-14T15:24:48;26.60;66.40
42261;DHT22;27926;48.062;7.474;2023-06-14T15:27:13;26.50;66.50
42261;DHT22;27926;48.062;7.474;2023-06-14T15:29:47;26.60;67.40
42261;DHT22;27926;48.062;7.474;2023-06-14T15:32:11;26.60;67.70
42261;DHT22;27926;48.062;7.474;2023-06-14T15:34:36;26.50;67.20
42261;DHT22;27926;48.062;7.474;2023-06-14T15:37:02;26.50;68.60